Bf Esperanza — V2BR8 — position and weather

sailwx.info

Track history (hours):
 
Tides and Currents Weather Stations Pressure Air Temp Water Temp Dewpoint Dewpoint Depression Visibility Wind Speed Wind Dir Waves Ship Positions

Bf Esperanza

Last reported at 2014-Oct-24 09:32 UTC. Time now 2014-Oct-24 10:26 UTC.
Position N 43°18' E 005°14'.

Length 135 m; draft 7.4 m.

Type: Cargo ship. MMSI: 304907000.

Date/timePositionNaut miles runAvg speedWind from/ knotsBaromVisibWave heightAir tempDewpointWater temp
2014-Oct-24 09:32N 43°18' E 005°14'5 2.4
2014-Oct-24 07:22N 43°21' E 005°20'0 0.0
2014-Oct-24 04:33N 43°21' E 005°20'0 0.0
2014-Oct-24 03:32N 43°21' E 005°20'0 0.0
2014-Oct-24 01:31N 43°21' E 005°20'0 0.0
2014-Oct-24 00:25N 43°21' E 005°20'0 0.0
2014-Oct-23 23:03N 43°21' E 005°20'0 0.0
2014-Oct-23 22:12N 43°21' E 005°20'0 0.0
2014-Oct-23 21:18N 43°21' E 005°20'0 0.0
2014-Oct-23 20:11N 43°21' E 005°20'0 0.0
2014-Oct-23 19:05N 43°21' E 005°20'0 0.0
2014-Oct-23 15:30N 43°21' E 005°20'4 4.4
2014-Oct-23 14:33N 43°19' E 005°15'1111.5
2014-Oct-23 13:33N 43°10' E 005°06'2813.8
2014-Oct-23 11:33N 43°06' E 004°28'1413.8
2014-Oct-23 10:33N 43°03' E 004°09'1614.0
2014-Oct-23 09:24N 43°00' E 003°48'1214.0
2014-Oct-23 08:33N 42°57' E 003°32'1413.3
2014-Oct-23 07:31N 42°46' E 003°21'1311.6
2014-Oct-23 06:27N 42°34' E 003°24'93 4.4
2014-Oct-22 09:19N 41°18' E 002°11'  
2014-Oct-18 18:15N 41°20' E 002°12'0 0.0
2014-Oct-18 16:08N 41°20' E 002°12'0 0.0
2014-Oct-18 15:32N 41°20' E 002°12'0 0.0
2014-Oct-18 14:07N 41°20' E 002°12'0 0.1
2014-Oct-18 13:31N 41°20' E 002°12'0 0.0
2014-Oct-18 12:31N 41°20' E 002°12'0 0.0
2014-Oct-18 11:18N 41°20' E 002°12'0 0.0
2014-Oct-18 10:24N 41°20' E 002°12'0 0.0
2014-Oct-18 06:28N 41°20' E 002°12'0 0.0
2014-Oct-18 05:22N 41°20' E 002°12'0 0.0
2014-Oct-18 04:27N 41°20' E 002°12'0 0.0
2014-Oct-18 03:33N 41°20' E 002°12'0 0.0
2014-Oct-17 23:19N 41°20' E 002°12'0 0.0
2014-Oct-17 22:31N 41°20' E 002°12'0 0.0
2014-Oct-17 21:30N 41°20' E 002°12'0 0.0
2014-Oct-17 20:30N 41°20' E 002°12'0 0.0
2014-Oct-17 19:05N 41°20' E 002°12'0 0.0
2014-Oct-17 18:23N 41°20' E 002°12'0 0.0
2014-Oct-17 17:16N 41°20' E 002°12'0 0.0
2014-Oct-17 15:27N 41°20' E 002°12'0 0.0
2014-Oct-17 14:27N 41°20' E 002°12'0 0.0
2014-Oct-17 13:21N 41°20' E 002°12'0 0.0
2014-Oct-17 12:26N 41°20' E 002°12'0 0.0
2014-Oct-17 11:32N 41°20' E 002°12'0 0.0
2014-Oct-17 10:13N 41°20' E 002°12'0 0.1
2014-Oct-17 09:10N 41°20' E 002°12'0 0.1
2014-Oct-17 08:16N 41°20' E 002°12'0 0.1
2014-Oct-17 07:19N 41°20' E 002°12'5 6.6
2014-Oct-17 06:33N 41°15' E 002°11'1514.8
2014-Oct-17 05:34N 41°02' E 002°01'1514.8
2014-Oct-17 04:33N 40°49' E 001°52'1514.9
2014-Oct-17 03:33N 40°35' E 001°43'1515.3
2014-Oct-17 02:33N 40°22' E 001°34'1514.7
2014-Oct-17 01:33N 40°09' E 001°25'1514.5
2014-Oct-17 00:33N 39°56' E 001°17'1514.7
2014-Oct-16 23:33N 39°42' E 001°08'2310.8
2014-Oct-16 21:28N 39°22' E 000°55'1010.0
2014-Oct-16 20:30N 39°14' E 000°49'2 2.4
2014-Oct-16 19:33N 39°12' E 000°50'3 2.6
2014-Oct-16 18:33N 39°10' E 000°47'4113.8
2014-Oct-16 15:33N 38°34' E 000°20'1814.5
2014-Oct-16 14:18N 38°19' E 000°08'1414.8
2014-Oct-16 13:19N 38°07' W 000°02'1114.3
2014-Oct-16 12:33N 37°58' W 000°10'1514.9
2014-Oct-16 11:32N 37°45' W 000°21'1514.7
2014-Oct-16 10:31N 37°33' W 000°31'1414.2
2014-Oct-16 09:33N 37°24' W 000°44'22814.9
2014-Oct-15 18:15N 36°00' W 005°09'1318.1
2014-Oct-15 17:34N 35°58' W 005°24'  
Track history (hours):
 
Tides and Currents Weather Stations Pressure Air Temp Water Temp Dewpoint Dewpoint Depression Visibility Wind Speed Wind Dir Waves Ship Positions

Bf Esperanza

Last reported at 2014-Oct-24 09:32 UTC. Time now 2014-Oct-24 10:26 UTC.
Position N 43°18' E 005°14'.

Length 135 m; draft 7.4 m.

Type: Cargo ship. MMSI: 304907000.

Date/timePositionNaut miles runAvg speedWind from/ knotsBaromVisibWave heightAir tempDewpointWater temp
2014-Oct-24 09:32N 43°18' E 005°14'5 2.4
2014-Oct-24 07:22N 43°21' E 005°20'0 0.0
2014-Oct-24 04:33N 43°21' E 005°20'0 0.0
2014-Oct-24 03:32N 43°21' E 005°20'0 0.0
2014-Oct-24 01:31N 43°21' E 005°20'0 0.0
2014-Oct-24 00:25N 43°21' E 005°20'0 0.0
2014-Oct-23 23:03N 43°21' E 005°20'0 0.0
2014-Oct-23 22:12N 43°21' E 005°20'0 0.0
2014-Oct-23 21:18N 43°21' E 005°20'0 0.0
2014-Oct-23 20:11N 43°21' E 005°20'0 0.0
2014-Oct-23 19:05N 43°21' E 005°20'0 0.0
2014-Oct-23 15:30N 43°21' E 005°20'4 4.4
2014-Oct-23 14:33N 43°19' E 005°15'1111.5
2014-Oct-23 13:33N 43°10' E 005°06'2813.8
2014-Oct-23 11:33N 43°06' E 004°28'1413.8
2014-Oct-23 10:33N 43°03' E 004°09'1614.0
2014-Oct-23 09:24N 43°00' E 003°48'1214.0
2014-Oct-23 08:33N 42°57' E 003°32'1413.3
2014-Oct-23 07:31N 42°46' E 003°21'1311.6
2014-Oct-23 06:27N 42°34' E 003°24'93 4.4
2014-Oct-22 09:19N 41°18' E 002°11'  
2014-Oct-18 18:15N 41°20' E 002°12'0 0.0
2014-Oct-18 16:08N 41°20' E 002°12'0 0.0
2014-Oct-18 15:32N 41°20' E 002°12'0 0.0
2014-Oct-18 14:07N 41°20' E 002°12'0 0.1
2014-Oct-18 13:31N 41°20' E 002°12'0 0.0
2014-Oct-18 12:31N 41°20' E 002°12'0 0.0
2014-Oct-18 11:18N 41°20' E 002°12'0 0.0
2014-Oct-18 10:24N 41°20' E 002°12'0 0.0
2014-Oct-18 06:28N 41°20' E 002°12'0 0.0
2014-Oct-18 05:22N 41°20' E 002°12'0 0.0
2014-Oct-18 04:27N 41°20' E 002°12'0 0.0
2014-Oct-18 03:33N 41°20' E 002°12'0 0.0
2014-Oct-17 23:19N 41°20' E 002°12'0 0.0
2014-Oct-17 22:31N 41°20' E 002°12'0 0.0
2014-Oct-17 21:30N 41°20' E 002°12'0 0.0
2014-Oct-17 20:30N 41°20' E 002°12'0 0.0
2014-Oct-17 19:05N 41°20' E 002°12'0 0.0
2014-Oct-17 18:23N 41°20' E 002°12'0 0.0
2014-Oct-17 17:16N 41°20' E 002°12'0 0.0
2014-Oct-17 15:27N 41°20' E 002°12'0 0.0
2014-Oct-17 14:27N 41°20' E 002°12'0 0.0
2014-Oct-17 13:21N 41°20' E 002°12'0 0.0
2014-Oct-17 12:26N 41°20' E 002°12'0 0.0
2014-Oct-17 11:32N 41°20' E 002°12'0 0.0
2014-Oct-17 10:13N 41°20' E 002°12'0 0.1
2014-Oct-17 09:10N 41°20' E 002°12'0 0.1
2014-Oct-17 08:16N 41°20' E 002°12'0 0.1
2014-Oct-17 07:19N 41°20' E 002°12'5 6.6
2014-Oct-17 06:33N 41°15' E 002°11'1514.8
2014-Oct-17 05:34N 41°02' E 002°01'1514.8
2014-Oct-17 04:33N 40°49' E 001°52'1514.9
2014-Oct-17 03:33N 40°35' E 001°43'1515.3
2014-Oct-17 02:33N 40°22' E 001°34'1514.7
2014-Oct-17 01:33N 40°09' E 001°25'1514.5
2014-Oct-17 00:33N 39°56' E 001°17'1514.7
2014-Oct-16 23:33N 39°42' E 001°08'2310.8
2014-Oct-16 21:28N 39°22' E 000°55'1010.0
2014-Oct-16 20:30N 39°14' E 000°49'2 2.4
2014-Oct-16 19:33N 39°12' E 000°50'3 2.6
2014-Oct-16 18:33N 39°10' E 000°47'4113.8
2014-Oct-16 15:33N 38°34' E 000°20'1814.5
2014-Oct-16 14:18N 38°19' E 000°08'1414.8
2014-Oct-16 13:19N 38°07' W 000°02'1114.3
2014-Oct-16 12:33N 37°58' W 000°10'1514.9
2014-Oct-16 11:32N 37°45' W 000°21'1514.7
2014-Oct-16 10:31N 37°33' W 000°31'1414.2
2014-Oct-16 09:33N 37°24' W 000°44'22814.9
2014-Oct-15 18:15N 36°00' W 005°09'1318.1
2014-Oct-15 17:34N 35°58' W 005°24'  

Dump ship's entire track history